createdAt,value
2019-02-23T00:00:17.926Z,77.03
2019-02-23T00:01:17.886Z,76.89
2019-02-23T00:02:17.916Z,77.24
2019-02-23T00:03:17.864Z,77.97
2019-02-23T00:04:17.907Z,76.61
2019-02-23T00:05:18.034Z,76.82
2019-02-23T00:06:29.043Z,77.24
2019-02-23T00:07:18.831Z,76.82
2019-02-23T00:08:18.905Z,76.96
2019-02-23T00:09:17.845Z,76.61
2019-02-23T00:10:17.776Z,76.54
2019-02-23T00:11:17.893Z,76.75
2019-02-23T00:12:17.770Z,76.96
2019-02-23T00:13:17.815Z,77.38
2019-02-23T00:14:17.788Z,77.48
2019-02-23T00:15:17.727Z,77.38
2019-02-23T00:16:18.740Z,78.35
2019-02-23T00:17:17.726Z,78.00
2019-02-23T00:18:17.760Z,78.98
2019-02-23T00:19:24.785Z,78.88
2019-02-23T00:20:18.709Z,79.61
2019-02-23T00:21:17.661Z,79.88
2019-02-23T00:22:17.772Z,80.72
2019-02-23T00:23:17.630Z,80.62
2019-02-23T00:24:17.662Z,81.03
2019-02-23T00:25:17.612Z,80.09
2019-02-23T00:26:17.713Z,79.68
2019-02-23T00:27:17.623Z,81.66
2019-02-23T00:28:17.633Z,80.96
2019-02-23T00:29:17.569Z,79.78
2019-02-23T00:30:17.557Z,79.88
2019-02-23T00:31:17.643Z,79.99
2019-02-23T00:32:17.552Z,80.51
2019-02-23T00:33:17.569Z,79.88
2019-02-23T00:34:17.509Z,79.88
2019-02-23T00:35:17.507Z,78.98
2019-02-23T00:36:17.579Z,78.77
2019-02-23T00:37:17.487Z,78.77
2019-02-23T00:38:17.515Z,78.25
2019-02-23T00:39:17.458Z,78.49
2019-02-23T00:40:17.448Z,78.49
2019-02-23T00:41:17.440Z,79.85
2019-02-23T00:42:17.539Z,81.42
2019-02-23T00:43:17.408Z,82.05
2019-02-23T00:44:17.417Z,81.95
2019-02-23T00:45:17.389Z,82.26
2019-02-23T00:46:17.375Z,83.09
2019-02-23T00:47:17.482Z,83.55
2019-02-23T00:48:17.335Z,83.65
2019-02-23T00:49:17.368Z,83.34
2019-02-23T00:50:17.328Z,82.40
2019-02-23T00:51:17.318Z,82.40
2019-02-23T00:52:17.425Z,82.92
2019-02-23T00:53:17.301Z,82.29
2019-02-23T00:54:17.305Z,82.12
2019-02-23T00:55:17.275Z,83.44
2019-02-23T00:56:17.261Z,83.80
2019-02-23T00:57:17.268Z,83.44
2019-02-23T00:58:17.273Z,82.54
2019-02-23T00:59:17.224Z,82.23
2019-02-23T01:00:17.318Z,82.58
2019-02-23T01:01:17.196Z,83.38
2019-02-23T01:02:17.287Z,83.31
2019-02-23T01:03:17.180Z,83.69
2019-02-23T01:04:17.281Z,83.80
2019-02-23T01:05:17.157Z,83.38
2019-02-23T01:06:17.219Z,83.27
2019-02-23T01:07:17.149Z,83.38
2019-02-23T01:08:17.149Z,83.48
2019-02-23T01:09:17.110Z,83.59
2019-02-23T01:10:19.468Z,84.15
2019-02-23T01:11:17.091Z,85.19
2019-02-23T01:12:17.099Z,85.09
2019-02-23T01:13:17.092Z,85.41
2019-02-23T01:14:17.063Z,85.82
2019-02-23T01:15:17.124Z,85.82
2019-02-23T01:16:17.013Z,86.45
2019-02-23T01:17:17.037Z,86.45
2019-02-23T01:18:17.031Z,86.55
2019-02-23T01:19:16.995Z,86.35
2019-02-23T01:20:17.069Z,85.82
2019-02-23T01:21:16.978Z,85.93
2019-02-23T01:22:16.985Z,86.45
2019-02-23T01:23:16.953Z,86.98
2019-02-23T01:24:17.041Z,86.35
2019-02-23T01:25:16.928Z,85.34
2019-02-23T01:26:16.976Z,85.65
2019-02-23T01:27:16.920Z,85.86
2019-02-23T01:28:16.912Z,86.80
2019-02-23T01:29:16.894Z,86.49
2019-02-23T01:30:16.943Z,86.49
2019-02-23T01:31:16.869Z,86.95
2019-02-23T01:32:16.935Z,87.01
2019-02-23T01:33:16.834Z,87.05
2019-02-23T01:34:16.916Z,86.43
2019-02-23T01:35:16.816Z,86.74
2019-02-23T01:36:16.857Z,86.53
2019-02-23T01:37:16.820Z,86.53
2019-02-23T01:38:16.779Z,87.05
2019-02-23T01:39:16.779Z,87.16
2019-02-23T01:40:18.869Z,87.58
2019-02-23T01:41:16.750Z,87.37
2019-02-23T01:42:16.815Z,87.89
2019-02-23T01:43:16.833Z,87.79
2019-02-23T01:44:16.714Z,87.96
2019-02-23T01:45:16.771Z,87.23
2019-02-23T01:46:16.695Z,87.37
2019-02-23T01:47:16.705Z,87.74
2019-02-23T01:48:16.688Z,87.85
2019-02-23T01:49:31.375Z,87.54
2019-02-23T01:50:16.646Z,86.70
2019-02-23T01:51:16.679Z,86.43
2019-02-23T01:52:16.617Z,86.91
2019-02-23T01:53:16.676Z,86.95
2019-02-23T01:54:16.598Z,87.12
2019-02-23T01:55:16.648Z,87.54
2019-02-23T01:56:16.599Z,87.85
2019-02-23T01:57:16.697Z,87.54
2019-02-23T01:58:16.580Z,87.33
2019-02-23T01:59:16.550Z,87.96
2019-02-23T02:00:16.602Z,88.69
2019-02-23T02:01:16.528Z,88.90
2019-02-23T02:02:18.574Z,88.96
2019-02-23T02:03:16.513Z,88.65
2019-02-23T02:04:16.489Z,88.75
2019-02-23T02:05:16.474Z,87.18
2019-02-23T02:06:17.529Z,86.77
2019-02-23T02:07:16.463Z,86.49
2019-02-23T02:08:16.484Z,86.60
2019-02-23T02:09:16.507Z,86.70
2019-02-23T02:10:16.418Z,86.55
2019-02-23T02:11:16.445Z,86.49
2019-02-23T02:12:16.400Z,87.01
2019-02-23T02:13:16.432Z,87.64
2019-02-23T02:14:16.371Z,87.60
2019-02-23T02:15:16.363Z,87.12
2019-02-23T02:16:16.381Z,86.91
2019-02-23T02:17:16.338Z,86.80
2019-02-23T02:18:16.364Z,87.23
2019-02-23T02:19:16.328Z,86.80
2019-02-23T02:20:16.306Z,87.12
2019-02-23T02:21:16.320Z,87.54
2019-02-23T02:22:17.333Z,87.85
2019-02-23T02:23:16.280Z,87.96
2019-02-23T02:24:18.378Z,87.96
2019-02-23T02:25:16.239Z,87.64
2019-02-23T02:26:16.283Z,87.64
2019-02-23T02:27:16.222Z,87.43
2019-02-23T02:28:16.239Z,87.33
2019-02-23T02:29:16.190Z,87.74
2019-02-23T02:30:16.189Z,87.64
2019-02-23T02:31:16.185Z,87.64
2019-02-23T02:32:16.273Z,87.01
2019-02-23T02:33:16.172Z,86.91
2019-02-23T02:34:16.209Z,86.80
2019-02-23T02:35:16.135Z,86.49
2019-02-23T02:36:16.156Z,85.90
2019-02-23T02:37:16.105Z,85.90
2019-02-23T02:38:16.237Z,86.85
2019-02-23T02:39:16.096Z,87.09
2019-02-23T02:40:16.127Z,86.78
2019-02-23T02:41:16.067Z,87.41
2019-02-23T02:42:16.158Z,87.79
2019-02-23T02:43:16.059Z,88.94
2019-02-23T02:44:16.098Z,88.10
2019-02-23T02:45:16.028Z,87.93
2019-02-23T02:46:16.018Z,87.79
2019-02-23T02:47:16.005Z,87.16
2019-02-23T02:48:16.114Z,88.21
2019-02-23T02:49:15.976Z,88.84
2019-02-23T02:50:24.339Z,89.04
2019-02-23T02:51:16.959Z,88.94
2019-02-23T02:52:17.061Z,88.42
2019-02-23T02:53:15.946Z,89.29
2019-02-23T02:54:15.966Z,89.15
2019-02-23T02:55:15.908Z,88.94
2019-02-23T02:56:15.898Z,88.46
2019-02-23T02:57:15.894Z,88.56
2019-02-23T02:58:16.908Z,88.77
2019-02-23T02:59:15.864Z,88.35
2019-02-23T03:00:15.878Z,88.39
2019-02-23T03:01:15.835Z,88.60
2019-02-23T03:02:16.932Z,88.60
2019-02-23T03:03:15.827Z,88.60
2019-02-23T03:04:16.871Z,88.71
2019-02-23T03:05:15.788Z,89.12
2019-02-23T03:06:15.886Z,88.92
2019-02-23T03:07:15.775Z,89.23
2019-02-23T03:08:16.788Z,89.48
2019-02-23T03:09:15.745Z,88.96
2019-02-23T03:10:15.759Z,89.59
2019-02-23T03:11:15.718Z,89.79
2019-02-23T03:12:15.717Z,90.22
2019-02-23T03:13:17.747Z,90.67
2019-02-23T03:14:15.693Z,90.64
2019-02-23T03:15:16.712Z,91.41
2019-02-23T03:16:15.681Z,91.41
2019-02-23T03:17:15.650Z,91.41
2019-02-23T03:18:15.673Z,91.30
2019-02-23T03:19:15.674Z,91.41
2019-02-23T03:20:15.632Z,91.37
2019-02-23T03:21:16.732Z,91.41
2019-02-23T03:22:15.613Z,90.67
2019-02-23T03:23:15.605Z,90.78
2019-02-23T03:24:15.605Z,90.36
2019-02-23T03:25:15.569Z,90.47
2019-02-23T03:26:15.645Z,90.82
2019-02-23T03:27:15.555Z,91.14
2019-02-23T03:28:15.555Z,91.30
2019-02-23T03:29:15.555Z,91.45
2019-02-23T03:30:15.519Z,91.45
2019-02-23T03:31:15.593Z,91.66
2019-02-23T03:32:15.499Z,91.66
2019-02-23T03:33:15.501Z,92.08
2019-02-23T03:34:15.478Z,91.77
2019-02-23T03:35:15.554Z,91.66
2019-02-23T03:36:15.445Z,91.77
2019-02-23T03:37:15.483Z,91.87
2019-02-23T03:38:15.438Z,91.77
2019-02-23T03:39:15.526Z,92.50
2019-02-23T03:40:15.394Z,91.87
2019-02-23T03:41:15.456Z,92.50
2019-02-23T03:42:15.378Z,91.97
2019-02-23T03:43:15.436Z,92.08
2019-02-23T03:44:15.349Z,92.57
2019-02-23T03:45:15.519Z,92.19
2019-02-23T03:46:15.332Z,91.87
2019-02-23T03:47:15.374Z,91.45
2019-02-23T03:48:15.341Z,91.77
2019-02-23T03:49:15.294Z,92.50
2019-02-23T03:50:15.284Z,91.87
2019-02-23T03:51:17.385Z,92.29
2019-02-23T03:52:15.252Z,92.50
2019-02-23T03:53:15.274Z,92.33
2019-02-23T03:54:15.284Z,92.29
2019-02-23T03:55:15.224Z,92.29
2019-02-23T03:56:21.936Z,91.97
2019-02-23T03:57:15.204Z,92.33
2019-02-23T03:58:16.237Z,91.66
2019-02-23T03:59:15.196Z,92.40
2019-02-23T04:00:15.257Z,92.29
2019-02-23T04:01:15.158Z,92.40
2019-02-23T04:02:15.182Z,92.29
2019-02-23T04:03:15.149Z,92.08
2019-02-23T04:04:15.174Z,92.19
2019-02-23T04:05:15.111Z,92.50
2019-02-23T04:06:15.172Z,92.29
2019-02-23T04:07:15.097Z,91.56
2019-02-23T04:08:15.199Z,91.45
2019-02-23T04:09:15.090Z,91.56
2019-02-23T04:10:15.062Z,91.77
2019-02-23T04:11:15.093Z,91.77
2019-02-23T04:12:15.042Z,91.56
2019-02-23T04:13:15.142Z,92.08
2019-02-23T04:14:15.027Z,92.29
2019-02-23T04:15:15.006Z,91.56
2019-02-23T04:16:14.989Z,91.45
2019-02-23T04:17:15.003Z,91.81
2019-02-23T04:18:14.976Z,91.60
2019-02-23T04:19:14.990Z,91.60
2019-02-23T04:20:15.013Z,91.60
2019-02-23T04:21:14.922Z,92.33
2019-02-23T04:22:14.947Z,92.12
2019-02-23T04:23:14.901Z,91.91
2019-02-23T04:24:16.965Z,92.54
2019-02-23T04:25:14.884Z,92.33
2019-02-23T04:26:14.916Z,92.23
2019-02-23T04:27:14.856Z,92.33
2019-02-23T04:28:14.958Z,92.33
2019-02-23T04:29:14.868Z,92.27
2019-02-23T04:30:14.900Z,92.38
2019-02-23T04:31:14.838Z,92.27
2019-02-23T04:32:14.951Z,92.27
2019-02-23T04:33:14.801Z,92.27
2019-02-23T04:34:14.899Z,92.27
2019-02-23T04:35:14.771Z,92.48
2019-02-23T04:36:14.780Z,92.48
2019-02-23T04:37:14.881Z,92.27
2019-02-23T04:38:14.742Z,92.27
2019-02-23T04:39:14.842Z,92.48
2019-02-23T04:40:14.713Z,92.48
2019-02-23T04:41:15.215Z,92.16
2019-02-23T04:42:14.695Z,92.84
2019-02-23T04:43:14.773Z,92.27
2019-02-23T04:44:14.684Z,92.69
2019-02-23T04:45:14.707Z,92.90
2019-02-23T04:46:14.648Z,92.80
2019-02-23T04:47:14.747Z,93.01
2019-02-23T04:48:14.642Z,92.69
2019-02-23T04:49:14.729Z,92.48
2019-02-23T04:50:14.612Z,92.69
2019-02-23T04:51:14.893Z,92.58
2019-02-23T04:52:14.585Z,92.38
2019-02-23T04:53:14.658Z,92.27
2019-02-23T04:54:14.587Z,92.48
2019-02-23T04:55:14.588Z,92.80
2019-02-23T04:56:14.544Z,92.38
2019-02-23T04:57:14.533Z,92.06
2019-02-23T04:58:14.588Z,92.38
2019-02-23T04:59:14.529Z,92.16
2019-02-23T05:00:14.549Z,91.96
2019-02-23T05:01:14.495Z,92.38
2019-02-23T05:02:14.467Z,92.38
2019-02-23T05:03:14.514Z,92.73
2019-02-23T05:04:14.537Z,92.42
2019-02-23T05:05:14.438Z,92.21
2019-02-23T05:06:14.534Z,92.52
2019-02-23T05:07:14.412Z,92.46
2019-02-23T05:08:14.472Z,92.25
2019-02-23T05:09:14.408Z,92.77
2019-02-23T05:10:14.409Z,93.30
2019-02-23T05:11:14.364Z,93.72
2019-02-23T05:12:14.447Z,93.89
2019-02-23T05:13:14.347Z,94.31
2019-02-23T05:14:14.426Z,93.62
2019-02-23T05:15:14.324Z,93.62
2019-02-23T05:16:14.432Z,93.62
2019-02-23T05:17:14.296Z,92.88
2019-02-23T05:18:14.287Z,93.41
2019-02-23T05:19:14.357Z,93.30
2019-02-23T05:20:14.278Z,93.19
2019-02-23T05:21:25.957Z,93.62
2019-02-23T05:22:15.248Z,93.30
2019-02-23T05:23:14.230Z,93.41
2019-02-23T05:24:14.250Z,93.09
2019-02-23T05:25:15.243Z,93.30
2019-02-23T05:26:14.201Z,93.19
2019-02-23T05:27:16.328Z,93.13
2019-02-23T05:28:14.237Z,93.34
2019-02-23T05:29:14.185Z,93.45
2019-02-23T05:30:14.268Z,93.19
2019-02-23T05:31:14.150Z,93.62
2019-02-23T05:32:14.196Z,93.72
2019-02-23T05:33:14.132Z,93.41
2019-02-23T05:34:14.176Z,93.62
2019-02-23T05:35:14.114Z,93.87
2019-02-23T05:36:14.170Z,93.83
2019-02-23T05:37:14.081Z,93.76
2019-02-23T05:38:14.103Z,93.72
2019-02-23T05:39:14.086Z,93.55
2019-02-23T05:40:14.140Z,93.76
2019-02-23T05:41:14.040Z,93.87
2019-02-23T05:42:14.075Z,94.08
2019-02-23T05:43:14.006Z,93.98
2019-02-23T05:44:14.015Z,93.93
2019-02-23T05:45:14.084Z,93.87
2019-02-23T05:46:13.977Z,93.34
2019-02-23T05:47:14.015Z,93.66
2019-02-23T05:48:13.956Z,93.45
2019-02-23T05:49:13.955Z,93.34
2019-02-23T05:50:13.927Z,92.92
2019-02-23T05:51:13.989Z,93.55
2019-02-23T05:52:13.910Z,93.76
2019-02-23T05:53:13.920Z,93.55
2019-02-23T05:54:13.919Z,93.80
2019-02-23T05:55:13.962Z,93.49
2019-02-23T05:56:16.308Z,93.87
2019-02-23T05:57:13.890Z,93.87
2019-02-23T05:58:13.844Z,94.18
2019-02-23T05:59:13.944Z,93.76
2019-02-23T06:00:13.844Z,95.09
2019-02-23T06:01:13.864Z,94.14
2019-02-23T06:02:13.802Z,93.83
2019-02-23T06:03:13.805Z,94.14
2019-02-23T06:04:13.776Z,93.93
2019-02-23T06:05:13.786Z,94.14
2019-02-23T06:06:13.748Z,93.62
2019-02-23T06:07:13.770Z,93.72
2019-02-23T06:08:13.767Z,93.72
2019-02-23T06:09:13.808Z,93.09
2019-02-23T06:10:13.709Z,93.41
2019-02-23T06:11:13.766Z,92.99
2019-02-23T06:12:13.692Z,92.77
2019-02-23T06:13:14.702Z,92.25
2019-02-23T06:14:13.674Z,92.57
2019-02-23T06:15:13.772Z,92.71
2019-02-23T06:16:13.642Z,93.30
2019-02-23T06:17:13.653Z,92.77
2019-02-23T06:18:13.615Z,92.57
2019-02-23T06:19:13.686Z,92.50
2019-02-23T06:20:13.605Z,92.50
2019-02-23T06:21:13.592Z,92.50
2019-02-23T06:22:13.600Z,92.19
2019-02-23T06:23:13.562Z,92.82
2019-02-23T06:24:13.628Z,93.66
2019-02-23T06:25:13.581Z,93.24
2019-02-23T06:26:13.531Z,92.61
2019-02-23T06:27:13.527Z,92.40
2019-02-23T06:28:13.602Z,92.57
2019-02-23T06:29:13.492Z,92.77
2019-02-23T06:30:13.582Z,92.77
2019-02-23T06:31:13.508Z,92.19
2019-02-23T06:32:13.477Z,92.25
2019-02-23T06:33:13.533Z,92.46
2019-02-23T06:34:16.537Z,92.14
2019-02-23T06:35:13.525Z,92.35
2019-02-23T06:36:13.447Z,92.71
2019-02-23T06:37:13.413Z,92.40
2019-02-23T06:38:13.477Z,92.50
2019-02-23T06:39:13.388Z,92.46
2019-02-23T06:40:13.469Z,92.29
2019-02-23T06:41:13.377Z,92.71
2019-02-23T06:42:13.458Z,93.66
2019-02-23T06:43:13.358Z,93.41
2019-02-23T06:44:13.378Z,93.30
2019-02-23T06:45:13.348Z,93.30
2019-02-23T06:46:13.428Z,92.67
2019-02-23T06:47:14.319Z,92.57
2019-02-23T06:48:13.294Z,92.25
2019-02-23T06:49:14.350Z,92.46
2019-02-23T06:50:13.302Z,92.10
2019-02-23T06:51:13.371Z,92.21
2019-02-23T06:52:13.336Z,92.67
2019-02-23T06:53:13.241Z,91.93
2019-02-23T06:54:13.271Z,92.14
2019-02-23T06:55:13.240Z,91.62
2019-02-23T06:56:13.297Z,91.72
2019-02-23T06:57:13.189Z,91.83
2019-02-23T06:58:13.240Z,91.72
2019-02-23T06:59:13.173Z,92.46
2019-02-23T07:00:13.211Z,92.31
2019-02-23T07:01:13.145Z,92.42
2019-02-23T07:02:13.218Z,92.31
2019-02-23T07:03:13.125Z,91.72
2019-02-23T07:04:13.152Z,92.42
2019-02-23T07:05:13.119Z,92.42
2019-02-23T07:06:13.177Z,92.42
2019-02-23T07:07:13.065Z,91.47
2019-02-23T07:08:13.067Z,91.89
2019-02-23T07:09:13.087Z,92.00
2019-02-23T07:10:13.069Z,91.58
2019-02-23T07:11:13.119Z,92.10
2019-02-23T07:12:13.039Z,92.42
2019-02-23T07:13:13.022Z,92.38
2019-02-23T07:14:12.989Z,91.85
2019-02-23T07:15:13.036Z,91.22
2019-02-23T07:16:12.981Z,91.43
2019-02-23T07:17:13.021Z,91.43
2019-02-23T07:18:12.967Z,91.43
2019-02-23T07:19:12.970Z,91.11
2019-02-23T07:20:12.955Z,90.69
2019-02-23T07:21:14.025Z,90.34
2019-02-23T07:22:15.831Z,90.44
2019-02-23T07:23:13.962Z,91.01
2019-02-23T07:24:12.896Z,90.38
2019-02-23T07:25:13.954Z,90.97
2019-02-23T07:26:12.879Z,90.44
2019-02-23T07:27:12.902Z,90.86
2019-02-23T07:28:12.846Z,90.44
2019-02-23T07:29:12.830Z,90.44
2019-02-23T07:30:12.964Z,89.07
2019-02-23T07:31:12.815Z,89.18
2019-02-23T07:32:13.872Z,89.18
2019-02-23T07:33:12.793Z,89.18
2019-02-23T07:34:12.811Z,89.60
2019-02-23T07:35:12.782Z,90.23
2019-02-23T07:36:12.819Z,89.67
2019-02-23T07:37:12.739Z,89.87
2019-02-23T07:38:12.768Z,89.35
2019-02-23T07:39:12.736Z,89.35
2019-02-23T07:40:12.845Z,89.14
2019-02-23T07:41:12.711Z,89.56
2019-02-23T07:42:12.729Z,88.93
2019-02-23T07:43:12.679Z,88.72
2019-02-23T07:44:12.770Z,89.14
2019-02-23T07:45:12.691Z,89.21
2019-02-23T07:46:19.450Z,89.62
2019-02-23T07:47:12.722Z,89.42
2019-02-23T07:48:12.731Z,89.21
2019-02-23T07:49:12.623Z,89.10
2019-02-23T07:50:12.624Z,88.47
2019-02-23T07:51:12.643Z,89.21
2019-02-23T07:52:12.592Z,89.00
2019-02-23T07:53:12.675Z,89.42
2019-02-23T07:54:12.573Z,89.42
2019-02-23T07:55:12.559Z,89.37
2019-02-23T07:56:12.544Z,88.75
2019-02-23T07:57:13.567Z,88.75
2019-02-23T07:58:12.528Z,88.64
2019-02-23T07:59:12.580Z,88.81
2019-02-23T08:00:12.593Z,88.29
2019-02-23T08:01:12.480Z,88.07
2019-02-23T08:02:13.510Z,88.07
2019-02-23T08:03:12.461Z,87.87
2019-02-23T08:04:12.520Z,87.55
2019-02-23T08:05:12.465Z,86.88
2019-02-23T08:06:12.504Z,86.68
2019-02-23T08:07:12.429Z,86.88
2019-02-23T08:08:12.495Z,85.94
2019-02-23T08:09:12.386Z,86.63
2019-02-23T08:10:13.457Z,85.90
2019-02-23T08:11:12.384Z,85.80
2019-02-23T08:12:12.467Z,85.59
2019-02-23T08:13:12.348Z,85.69
2019-02-23T08:14:12.399Z,85.17
2019-02-23T08:15:12.332Z,85.38
2019-02-23T08:16:12.338Z,84.68
2019-02-23T08:17:13.333Z,85.27
2019-02-23T08:18:12.300Z,85.38
2019-02-23T08:19:13.363Z,83.70
2019-02-23T08:20:12.276Z,83.25
2019-02-23T08:21:12.283Z,83.49
2019-02-23T08:22:13.276Z,83.25
2019-02-23T08:23:12.245Z,84.01
2019-02-23T08:24:14.340Z,83.70
2019-02-23T08:25:12.231Z,83.45
2019-02-23T08:26:12.226Z,83.66
2019-02-23T08:27:12.207Z,83.35
2019-02-23T08:28:12.258Z,82.68
2019-02-23T08:29:12.175Z,81.92
2019-02-23T08:30:12.193Z,82.43
2019-02-23T08:31:13.402Z,82.43
2019-02-23T08:32:12.158Z,82.43
2019-02-23T08:33:12.198Z,81.70
2019-02-23T08:34:12.129Z,80.97
2019-02-23T08:35:12.139Z,80.24
2019-02-23T08:36:12.121Z,81.25
2019-02-23T08:37:12.180Z,81.04
2019-02-23T08:38:12.091Z,81.15
2019-02-23T08:39:12.111Z,79.64
2019-02-23T08:40:12.060Z,78.84
2019-02-23T08:41:12.091Z,78.14
2019-02-23T08:42:12.050Z,74.87
2019-02-23T08:43:12.082Z,75.01
2019-02-23T08:44:12.023Z,73.83
2019-02-23T08:45:12.102Z,72.68
2019-02-23T08:46:12.014Z,72.68
2019-02-23T08:47:12.044Z,72.61
2019-02-23T08:48:11.975Z,71.98
2019-02-23T08:49:11.985Z,71.57
2019-02-23T08:50:11.953Z,70.42
2019-02-23T08:51:12.066Z,70.53
2019-02-23T08:52:11.937Z,71.33
2019-02-23T08:53:13.997Z,71.75
2019-02-23T08:54:11.906Z,71.64
2019-02-23T08:55:11.988Z,71.71
2019-02-23T08:56:11.883Z,70.84
2019-02-23T08:57:11.871Z,71.44
2019-02-23T08:58:11.859Z,71.82
2019-02-23T08:59:11.969Z,71.27
2019-02-23T09:00:11.839Z,69.23
2019-02-23T09:01:11.942Z,66.88
2019-02-23T09:02:11.880Z,64.36
2019-02-23T09:03:11.811Z,62.46
2019-02-23T09:04:11.901Z,61.32
2019-02-23T09:05:11.780Z,61.29
2019-02-23T09:06:14.951Z,60.64
2019-02-23T09:07:11.751Z,58.93
2019-02-23T09:08:13.923Z,59.14
2019-02-23T09:09:11.733Z,57.68
2019-02-23T09:10:11.806Z,57.32
2019-02-23T09:11:11.723Z,56.57
2019-02-23T09:12:11.694Z,54.97
2019-02-23T09:13:11.694Z,53.91
2019-02-23T09:14:40.535Z,53.47
2019-02-23T09:15:11.670Z,52.83
2019-02-23T09:16:11.776Z,54.30
2019-02-23T09:17:11.680Z,53.99
2019-02-23T09:18:11.647Z,53.66
2019-02-23T09:19:11.727Z,52.37
2019-02-23T09:20:11.618Z,48.35
2019-02-23T09:21:11.718Z,47.11
2019-02-23T09:22:11.599Z,46.70
2019-02-23T09:23:12.619Z,46.26
2019-02-23T09:24:11.579Z,47.17
2019-02-23T09:25:11.628Z,46.92
2019-02-23T09:26:11.573Z,45.50
2019-02-23T09:27:11.571Z,45.32
2019-02-23T09:28:11.524Z,45.48
2019-02-23T09:29:11.596Z,44.06
2019-02-23T09:30:11.507Z,45.32
2019-02-23T09:31:11.571Z,44.89
2019-02-23T09:32:11.483Z,44.65
2019-02-23T09:33:11.475Z,44.04
2019-02-23T09:34:11.546Z,45.17
2019-02-23T09:35:11.446Z,46.01
2019-02-23T09:36:11.529Z,45.81
2019-02-23T09:37:11.431Z,46.01
2019-02-23T09:38:11.405Z,48.02
2019-02-23T09:39:11.391Z,48.19
2019-02-23T09:40:11.430Z,50.63
2019-02-23T09:41:11.394Z,51.65
2019-02-23T09:42:11.386Z,53.69
2019-02-23T09:43:11.467Z,54.68
2019-02-23T09:44:11.344Z,55.20
2019-02-23T09:45:11.388Z,57.53
2019-02-23T09:46:11.338Z,57.56
2019-02-23T09:47:12.347Z,57.59
2019-02-23T09:48:11.389Z,58.54
2019-02-23T09:49:11.308Z,58.54
2019-02-23T09:50:12.359Z,60.42
2019-02-23T09:51:11.303Z,62.29
2019-02-23T09:52:11.380Z,59.72
2019-02-23T09:53:11.633Z,57.61
2019-02-23T09:54:11.232Z,59.07
2019-02-23T09:55:11.282Z,59.48
2019-02-23T09:56:11.222Z,59.30
2019-02-23T09:57:12.232Z,58.65
2019-02-23T09:58:11.196Z,57.71
2019-02-23T09:59:11.243Z,57.30
2019-02-23T10:00:11.176Z,59.38
2019-02-23T10:01:11.235Z,58.34
2019-02-23T10:02:11.145Z,56.99
2019-02-23T10:03:11.226Z,57.61
2019-02-23T10:04:11.125Z,57.51
2019-02-23T10:05:11.157Z,57.40
2019-02-23T10:06:11.139Z,58.86
2019-02-23T10:07:12.117Z,57.92
2019-02-23T10:08:11.078Z,58.13
2019-02-23T10:09:11.067Z,57.38
2019-02-23T10:10:11.088Z,58.11
2019-02-23T10:11:11.048Z,58.52
2019-02-23T10:12:11.080Z,57.38
2019-02-23T10:13:11.039Z,57.45
2019-02-23T10:14:11.021Z,57.35
2019-02-23T10:15:11.041Z,57.45
2019-02-23T10:16:10.982Z,57.35
2019-02-23T10:17:11.003Z,56.73
2019-02-23T10:18:10.971Z,55.79
2019-02-23T10:19:10.952Z,57.12
2019-02-23T10:20:10.941Z,56.68
2019-02-23T10:21:11.033Z,58.34
2019-02-23T10:22:10.936Z,55.54
2019-02-23T10:23:21.577Z,55.02
2019-02-23T10:24:11.964Z,55.43
2019-02-23T10:25:10.889Z,56.05
2019-02-23T10:26:10.965Z,54.68
2019-02-23T10:27:10.875Z,55.82
2019-02-23T10:28:10.937Z,56.65
2019-02-23T10:29:10.877Z,55.20
2019-02-23T10:30:10.836Z,55.38
2019-02-23T10:31:10.918Z,55.38
2019-02-23T10:32:10.817Z,54.75
2019-02-23T10:33:11.878Z,53.92
2019-02-23T10:34:10.780Z,53.72
2019-02-23T10:35:11.810Z,53.17
2019-02-23T10:36:10.766Z,54.21
2019-02-23T10:37:11.788Z,54.21
2019-02-23T10:38:10.730Z,56.08
2019-02-23T10:39:10.751Z,55.87
2019-02-23T10:40:10.712Z,54.11
2019-02-23T10:41:12.741Z,54.11
2019-02-23T10:42:10.712Z,53.80
2019-02-23T10:43:10.725Z,54.21
2019-02-23T10:44:10.683Z,52.97
2019-02-23T10:45:10.663Z,54.32
2019-02-23T10:46:10.645Z,54.21
2019-02-23T10:47:10.754Z,53.90
2019-02-23T10:48:10.627Z,54.63
2019-02-23T10:49:10.646Z,54.08
2019-02-23T10:50:10.708Z,53.88
2019-02-23T10:51:10.596Z,53.25
2019-02-23T10:52:10.696Z,52.95
2019-02-23T10:53:10.588Z,53.36
2019-02-23T10:54:10.577Z,54.89
2019-02-23T10:55:10.559Z,55.20
2019-02-23T10:56:10.618Z,53.54
2019-02-23T10:57:10.548Z,52.82
2019-02-23T10:58:10.549Z,53.03
2019-02-23T10:59:10.510Z,52.82
2019-02-23T11:00:10.590Z,53.41
2019-02-23T11:01:10.491Z,54.84
2019-02-23T11:02:10.573Z,54.53
2019-02-23T11:03:10.462Z,52.77
2019-02-23T11:04:10.562Z,52.98
2019-02-23T11:05:10.444Z,52.98
2019-02-23T11:06:10.432Z,52.95
2019-02-23T11:07:10.503Z,54.30
2019-02-23T11:08:10.403Z,55.02
2019-02-23T11:09:10.504Z,54.40
2019-02-23T11:10:10.384Z,54.53
2019-02-23T11:11:10.375Z,53.70
2019-02-23T11:12:10.375Z,53.28
2019-02-23T11:13:10.376Z,54.32
2019-02-23T11:14:10.336Z,53.18
2019-02-23T11:15:10.407Z,52.46
2019-02-23T11:16:10.377Z,52.87
2019-02-23T11:17:10.327Z,52.56
2019-02-23T11:18:11.349Z,52.87
2019-02-23T11:19:10.279Z,51.32
2019-02-23T11:20:12.289Z,51.84
2019-02-23T11:21:10.254Z,51.53
2019-02-23T11:22:10.330Z,52.23
2019-02-23T11:23:10.231Z,51.32
2019-02-23T11:24:10.321Z,52.36
2019-02-23T11:25:10.211Z,51.81
2019-02-23T11:26:10.251Z,51.81
2019-02-23T11:27:10.203Z,50.57
2019-02-23T11:28:10.292Z,51.92
2019-02-23T11:29:10.163Z,51.29
2019-02-23T11:30:10.226Z,49.95
2019-02-23T11:31:10.164Z,49.95
2019-02-23T11:32:10.167Z,53.65
2019-02-23T11:33:10.137Z,52.83
2019-02-23T11:34:10.219Z,53.55
2019-02-23T11:35:10.097Z,55.20
2019-02-23T11:36:10.126Z,54.79
2019-02-23T11:37:10.157Z,52.08
2019-02-23T11:38:10.047Z,50.76
2019-02-23T11:39:10.137Z,50.63
2019-02-23T11:40:10.028Z,49.62
2019-02-23T11:41:10.079Z,49.70
2019-02-23T11:42:10.039Z,49.08
2019-02-23T11:43:10.110Z,48.13
2019-02-23T11:44:09.986Z,48.33
2019-02-23T11:45:10.051Z,49.88
2019-02-23T11:46:09.971Z,48.65
2019-02-23T11:47:10.033Z,48.33
2019-02-23T11:48:09.962Z,49.99
2019-02-23T11:49:10.023Z,52.05
2019-02-23T11:50:09.933Z,54.12
2019-02-23T11:51:09.954Z,54.22
2019-02-23T11:52:09.934Z,55.15
2019-02-23T11:53:09.906Z,55.46
2019-02-23T11:54:09.895Z,48.33
2019-02-23T11:55:09.928Z,40.78
2019-02-23T11:56:09.871Z,39.84
2019-02-23T11:57:10.939Z,42.94
2019-02-23T11:58:09.842Z,37.06
2019-02-23T11:59:09.897Z,42.30
2019-02-23T12:00:09.820Z,48.49
2019-02-23T12:01:09.832Z,50.35
2019-02-23T12:02:09.818Z,50.04
2019-02-23T12:03:09.870Z,44.26
2019-02-23T12:04:09.782Z,42.20
2019-02-23T12:05:10.830Z,39.21
2019-02-23T12:06:09.758Z,40.73
2019-02-23T12:07:10.821Z,40.10
2019-02-23T12:08:09.731Z,41.44
2019-02-23T12:09:09.721Z,43.91
2019-02-23T12:10:09.756Z,38.56
2019-02-23T12:11:09.703Z,36.27
2019-02-23T12:12:09.783Z,39.67
2019-02-23T12:13:09.707Z,39.15
2019-02-23T12:14:09.667Z,40.80
2019-02-23T12:15:09.656Z,39.67
2019-02-23T12:16:09.756Z,38.95
2019-02-23T12:17:09.625Z,34.19
2019-02-23T12:18:09.736Z,36.87
2019-02-23T12:19:09.608Z,40.47
2019-02-23T12:20:09.626Z,38.52
2019-02-23T12:21:09.577Z,38.82
2019-02-23T12:22:12.310Z,36.25
2019-02-23T12:23:09.568Z,36.98
2019-02-23T12:24:09.599Z,39.14
2019-02-23T12:25:09.539Z,39.55
2019-02-23T12:26:09.631Z,40.68
2019-02-23T12:27:09.522Z,35.02
2019-02-23T12:28:09.613Z,37.59
2019-02-23T12:29:09.491Z,36.66
2019-02-23T12:30:09.491Z,38.73
2019-02-23T12:31:09.470Z,37.18
2019-02-23T12:32:09.552Z,35.74
2019-02-23T12:33:09.483Z,32.65
2019-02-23T12:34:09.494Z,36.87
2019-02-23T12:35:09.425Z,31.41
2019-02-23T12:36:09.525Z,33.15
2019-02-23T12:37:09.405Z,33.15
2019-02-23T12:38:09.497Z,35.00
2019-02-23T12:39:09.379Z,35.52
2019-02-23T12:40:09.386Z,34.57
2019-02-23T12:41:09.358Z,33.56
2019-02-23T12:42:09.440Z,35.39
2019-02-23T12:43:09.357Z,32.20
2019-02-23T12:44:09.359Z,32.31
2019-02-23T12:45:09.320Z,31.16
2019-02-23T12:46:09.306Z,33.73
2019-02-23T12:47:11.309Z,34.57
2019-02-23T12:48:09.299Z,33.84
2019-02-23T12:49:09.300Z,30.65
2019-02-23T12:50:09.261Z,30.34
2019-02-23T12:51:09.246Z,36.51
2019-02-23T12:52:09.241Z,34.57